Time;durP1;ratioP1;P1;durP2;ratioP2;P2;SDS_P1;SDS_P2;PMS_P1;PMS_P2;Temp;Humidity;BMP_temperature;BMP_pressure;BME280_temperature;BME280_humidity;BME280_pressure;Samples;Min_cycle;Max_cycle;Signal;HPM_P1;HPM_P2
2022/10/29 00:02:11;;;;;;;4.75;4.07;;;21.50;54.30;;;;;;5045909;28;45274;-71
2022/10/29 00:04:39;;;;;;;6.32;4.47;;;21.50;54.30;;;;;;5045855;28;45518;-69
2022/10/29 00:07:06;;;;;;;5.53;4.13;;;21.50;54.30;;;;;;5046541;28;45309;-69
2022/10/29 00:09:34;;;;;;;7.85;4.20;;;21.50;54.40;;;;;;5046117;28;45518;-70
2022/10/29 00:12:01;;;;;;;5.65;4.15;;;21.50;54.40;;;;;;5046607;28;46491;-70
2022/10/29 00:14:28;;;;;;;5.85;4.18;;;21.50;54.30;;;;;;5049862;28;45190;-70
2022/10/29 00:16:55;;;;;;;4.75;3.67;;;21.40;54.40;;;;;;5050018;28;45369;-69
2022/10/29 00:19:22;;;;;;;4.18;3.78;;;21.40;54.40;;;;;;5049466;28;45555;-69
2022/10/29 00:21:51;;;;;;;7.18;4.20;;;21.40;54.30;;;;;;5049142;28;45288;-69
2022/10/29 00:24:18;;;;;;;7.30;4.43;;;21.40;54.40;;;;;;5049230;28;45130;-69
2022/10/29 00:26:48;;;;;;;6.85;3.80;;;21.40;54.40;;;;;;5049772;28;45261;-69
2022/10/29 00:29:15;;;;;;;4.40;3.80;;;21.40;54.40;;;;;;5049821;28;45658;-71
2022/10/29 00:31:42;;;;;;;4.97;4.15;;;21.40;54.40;;;;;;5049690;28;46381;-71
2022/10/29 00:34:09;;;;;;;5.82;3.97;;;21.40;54.40;;;;;;5049762;28;45196;-71
2022/10/29 00:36:36;;;;;;;7.22;4.00;;;21.40;54.40;;;;;;5048968;28;45376;-71
2022/10/29 00:39:04;;;;;;;6.95;3.97;;;21.40;54.40;;;;;;5049745;28;45296;-72
2022/10/29 00:41:31;;;;;;;5.75;4.00;;;21.40;54.50;;;;;;5049064;28;46576;-69
2022/10/29 00:44:29;;;;;;;5.25;3.75;;;21.40;54.50;;;;;;5048272;28;45208;-72
2022/10/29 00:46:58;;;;;;;5.70;4.10;;;21.40;54.50;;;;;;4987544;28;45372;-69
2022/10/29 00:49:25;;;;;;;6.95;3.70;;;21.40;54.40;;;;;;5035625;28;45224;-69
2022/10/29 00:51:52;;;;;;;5.57;4.10;;;21.30;54.50;;;;;;5048742;28;45470;-70
2022/10/29 00:54:20;;;;;;;6.13;4.10;;;21.30;54.30;;;;;;5047890;28;45214;-71
2022/10/29 00:56:48;;;;;;;5.47;4.18;;;21.30;54.40;;;;;;5048687;28;45336;-70
2022/10/29 00:59:16;;;;;;;7.57;4.30;;;21.30;54.40;;;;;;5048812;28;45399;-69
2022/10/29 01:01:42;;;;;;;5.13;4.50;;;21.30;54.40;;;;;;5048241;28;45469;-69
2022/10/29 01:04:09;;;;;;;5.82;4.25;;;21.30;54.40;;;;;;5048327;28;45196;-70
2022/10/29 01:06:36;;;;;;;5.40;4.15;;;21.30;54.40;;;;;;5048323;28;45233;-69
2022/10/29 01:09:03;;;;;;;5.70;4.10;;;21.30;54.50;;;;;;5048797;28;45449;-70
2022/10/29 01:11:36;;;;;;;8.40;4.10;;;21.30;54.30;;;;;;5048285;28;45401;-69
2022/10/29 01:14:06;;;;;;;5.97;3.83;;;21.30;54.30;;;;;;5048364;28;45308;-70
2022/10/29 01:16:36;;;;;;;5.13;4.03;;;21.30;54.40;;;;;;5048299;28;45304;-70
2022/10/29 01:19:13;;;;;;;6.35;4.10;;;21.30;54.40;;;;;;5048488;28;45416;-70
2022/10/29 01:21:42;;;;;;;5.05;3.65;;;21.30;54.40;;;;;;5048224;28;47438;-71
2022/10/29 01:24:46;;;;;;;5.45;4.32;;;21.30;54.30;;;;;;5047823;28;45231;-70
2022/10/29 01:27:43;;;;;;;7.55;3.70;;;21.30;54.40;;;;;;5048073;28;45232;-70
2022/10/29 01:30:13;;;;;;;5.90;3.80;;;21.30;54.30;;;;;;5034973;28;45282;-70
2022/10/29 01:32:46;;;;;;;4.88;3.50;;;21.30;54.40;;;;;;5048000;28;45292;-71
2022/10/29 01:35:16;;;;;;;5.82;3.85;;;21.30;54.50;;;;;;5047727;28;45369;-70
2022/10/29 01:37:47;;;;;;;5.60;3.85;;;21.20;54.40;;;;;;5048041;28;45209;-70
2022/10/29 01:40:17;;;;;;;6.75;4.32;;;21.30;54.50;;;;;;5048059;28;45305;-70
2022/10/29 01:42:46;;;;;;;6.43;3.90;;;21.20;54.50;;;;;;5047803;28;45434;-70
2022/10/29 01:45:16;;;;;;;5.10;3.75;;;21.20;54.50;;;;;;5047772;28;45316;-70
2022/10/29 01:47:45;;;;;;;5.00;4.00;;;21.20;54.60;;;;;;5047998;28;45182;-70
2022/10/29 01:50:14;;;;;;;4.15;3.75;;;21.20;54.50;;;;;;5048120;28;45280;-70
2022/10/29 01:52:41;;;;;;;5.22;3.67;;;21.20;54.70;;;;;;5047657;28;46340;-71
2022/10/29 01:55:08;;;;;;;5.07;3.60;;;21.20;54.60;;;;;;5047637;28;45282;-71
2022/10/29 01:57:36;;;;;;;5.25;3.40;;;21.20;54.70;;;;;;5047747;28;45104;-70
2022/10/29 02:00:04;;;;;;;5.53;3.78;;;21.10;54.70;;;;;;5047874;28;45369;-71
2022/10/29 02:02:39;;;;;;;7.28;3.97;;;21.10;54.70;;;;;;5047503;28;46361;-70
2022/10/29 02:05:11;;;;;;;6.60;3.85;;;21.10;54.70;;;;;;5047414;28;45269;-70
2022/10/29 02:07:44;;;;;;;5.05;3.67;;;21.10;55.40;;;;;;5047050;28;45287;-70
2022/10/29 02:10:15;;;;;;;6.78;3.80;;;21.10;54.80;;;;;;5047403;28;45400;-70
2022/10/29 02:12:44;;;;;;;6.07;3.45;;;21.10;54.90;;;;;;5047409;28;46340;-70
2022/10/29 02:15:13;;;;;;;6.35;3.88;;;21.10;54.90;;;;;;5047342;28;45314;-71
2022/10/29 02:17:40;;;;;;;4.05;3.65;;;21.10;54.90;;;;;;5047320;28;45337;-70
2022/10/29 02:20:10;;;;;;;5.50;3.63;;;21.10;54.90;;;;;;5047667;28;45290;-71
2022/10/29 02:22:36;;;;;;;6.30;3.42;;;21.10;54.90;;;;;;5046678;28;46713;-70
2022/10/29 02:25:04;;;;;;;4.68;3.85;;;21.10;55.60;;;;;;5047289;28;45443;-71
2022/10/29 02:27:31;;;;;;;6.30;3.60;;;21.10;55.00;;;;;;5047186;28;45258;-70
2022/10/29 02:29:58;;;;;;;5.47;4.15;;;21.10;55.00;;;;;;5047344;28;45392;-70
2022/10/29 02:32:24;;;;;;;4.05;3.55;;;21.10;55.00;;;;;;5046849;28;45273;-70
2022/10/29 02:34:51;;;;;;;4.63;3.63;;;21.00;55.00;;;;;;5046761;28;45468;-71
2022/10/29 02:37:19;;;;;;;5.88;3.63;;;21.00;55.00;;;;;;5046405;28;45285;-70
2022/10/29 02:39:46;;;;;;;5.90;3.53;;;21.00;55.10;;;;;;5047352;28;45271;-70
2022/10/29 02:42:13;;;;;;;7.97;3.60;;;21.00;55.10;;;;;;5046751;28;46815;-70
2022/10/29 02:44:40;;;;;;;7.40;3.53;;;21.00;55.00;;;;;;5046939;28;45202;-71
2022/10/29 02:47:07;;;;;;;4.40;3.53;;;21.10;55.00;;;;;;5047105;28;45303;-70
2022/10/29 02:49:34;;;;;;;4.57;3.38;;;21.10;55.00;;;;;;5047174;28;45454;-71
2022/10/29 02:52:01;;;;;;;5.82;3.88;;;21.10;55.00;;;;;;5047115;28;45377;-70
2022/10/29 02:54:29;;;;;;;4.90;3.30;;;21.10;55.00;;;;;;5046845;28;45211;-71
2022/10/29 02:56:56;;;;;;;4.32;3.75;;;21.10;55.10;;;;;;5046845;28;45192;-70
2022/10/29 02:59:23;;;;;;;4.82;3.10;;;21.10;55.10;;;;;;5046775;28;45423;-71
2022/10/29 03:01:49;;;;;;;5.38;3.45;;;21.10;55.10;;;;;;5046561;28;46421;-70
2022/10/29 03:04:16;;;;;;;4.43;3.30;;;21.00;55.00;;;;;;5046409;28;45489;-70
2022/10/29 03:06:43;;;;;;;4.85;3.55;;;21.00;55.00;;;;;;5045613;28;45197;-71
2022/10/29 03:09:10;;;;;;;5.25;3.80;;;21.00;55.00;;;;;;5046907;28;45270;-70
2022/10/29 03:11:38;;;;;;;5.20;3.63;;;21.00;55.00;;;;;;5046340;28;46384;-70
2022/10/29 03:14:05;;;;;;;4.55;3.35;;;21.00;55.10;;;;;;5046371;28;45416;-70
2022/10/29 03:16:32;;;;;;;4.85;3.53;;;21.00;55.00;;;;;;5046382;28;45251;-70
2022/10/29 03:18:59;;;;;;;4.90;3.10;;;21.00;55.10;;;;;;5046657;28;45182;-70
2022/10/29 03:21:26;;;;;;;4.97;3.20;;;21.00;55.10;;;;;;5046289;28;45402;-70
2022/10/29 03:23:53;;;;;;;5.72;3.03;;;21.00;55.10;;;;;;5046652;28;45384;-70
2022/10/29 03:26:20;;;;;;;4.82;3.40;;;21.00;55.10;;;;;;5046185;28;45313;-70
2022/10/29 03:28:48;;;;;;;5.63;3.45;;;20.90;55.10;;;;;;5046617;28;45261;-70
2022/10/29 03:31:15;;;;;;;5.85;3.33;;;20.90;55.10;;;;;;5046216;28;45254;-70
2022/10/29 03:33:42;;;;;;;6.82;3.25;;;20.90;55.10;;;;;;5046160;28;45298;-70
2022/10/29 03:36:09;;;;;;;5.93;3.28;;;20.90;55.10;;;;;;5046159;28;45299;-70
2022/10/29 03:38:36;;;;;;;5.00;3.50;;;20.90;55.10;;;;;;5046488;28;45307;-70
2022/10/29 03:41:07;;;;;;;4.78;3.20;;;20.90;55.10;;;;;;5046224;28;47325;-71
2022/10/29 03:43:35;;;;;;;3.97;3.20;;;20.90;55.80;;;;;;5046059;28;45290;-70
2022/10/29 03:46:03;;;;;;;5.07;3.60;;;20.90;55.80;;;;;;5046083;28;45309;-70
2022/10/29 03:48:30;;;;;;;6.70;3.10;;;20.90;55.10;;;;;;5049544;28;45186;-70
2022/10/29 03:50:57;;;;;;;4.30;3.38;;;20.90;55.10;;;;;;5049666;28;46765;-70
2022/10/29 03:53:24;;;;;;;4.32;3.30;;;20.90;55.10;;;;;;5048861;28;45321;-70
2022/10/29 03:55:51;;;;;;;5.45;3.40;;;20.80;55.10;;;;;;5049733;28;45325;-70
2022/10/29 03:58:18;;;;;;;5.15;3.47;;;20.80;55.20;;;;;;5049667;28;45139;-70
2022/10/29 04:00:44;;;;;;;5.25;3.15;;;20.80;55.10;;;;;;5049226;28;45205;-70
2022/10/29 04:03:13;;;;;;;3.90;3.25;;;20.80;55.20;;;;;;5049578;28;45269;-70
2022/10/29 04:05:39;;;;;;;5.85;3.30;;;20.70;55.20;;;;;;5049423;28;45367;-70
2022/10/29 04:08:06;;;;;;;5.38;3.30;;;20.70;55.20;;;;;;5049243;28;45342;-70
2022/10/29 04:10:33;;;;;;;5.00;3.13;;;20.70;55.30;;;;;;5046646;28;45482;-71
2022/10/29 04:13:00;;;;;;;3.90;3.20;;;20.70;55.30;;;;;;5049384;28;45126;-71
2022/10/29 04:15:27;;;;;;;5.18;3.10;;;20.60;55.30;;;;;;5049359;28;45216;-70
2022/10/29 04:17:54;;;;;;;5.00;3.30;;;20.60;55.40;;;;;;5049585;28;45296;-70
2022/10/29 04:20:22;;;;;;;4.63;3.38;;;20.60;55.40;;;;;;5048855;28;45493;-70
2022/10/29 04:22:51;;;;;;;6.55;3.15;;;20.60;55.50;;;;;;5049218;28;45273;-70
2022/10/29 04:25:17;;;;;;;4.63;3.00;;;20.60;55.50;;;;;;5049203;28;45166;-70
2022/10/29 04:27:45;;;;;;;3.83;2.80;;;20.60;55.50;;;;;;5049192;28;45320;-70
2022/10/29 04:30:12;;;;;;;4.57;3.05;;;20.60;55.50;;;;;;5048818;28;45323;-70
2022/10/29 04:32:39;;;;;;;5.85;3.28;;;20.50;55.60;;;;;;5048996;28;45242;-70
2022/10/29 04:35:06;;;;;;;3.72;3.20;;;20.50;55.60;;;;;;5048791;28;45210;-70
2022/10/29 04:37:35;;;;;;;4.40;3.13;;;20.50;55.50;;;;;;5048433;28;45482;-71
2022/10/29 04:40:02;;;;;;;4.35;3.20;;;20.50;55.50;;;;;;5048484;28;45321;-68
2022/10/29 04:42:28;;;;;;;5.53;3.00;;;20.50;55.60;;;;;;5048665;28;45175;-68
2022/10/29 04:44:55;;;;;;;3.50;2.85;;;20.50;55.60;;;;;;5048710;28;45250;-71
2022/10/29 04:47:22;;;;;;;4.97;3.22;;;20.50;55.60;;;;;;5049043;28;45257;-72
2022/10/29 04:49:49;;;;;;;3.30;2.97;;;20.50;55.60;;;;;;5048566;28;45292;-73
2022/10/29 04:52:16;;;;;;;5.30;3.10;;;20.40;55.60;;;;;;5048721;28;45388;-72
2022/10/29 04:54:44;;;;;;;3.35;2.75;;;20.40;55.60;;;;;;5048596;28;45531;-72
2022/10/29 04:57:11;;;;;;;3.42;2.92;;;20.40;55.60;;;;;;5048658;28;45480;-72
2022/10/29 04:59:38;;;;;;;4.45;3.03;;;20.40;55.60;;;;;;5047531;28;46668;-71
2022/10/29 05:02:05;;;;;;;6.45;2.83;;;20.40;55.60;;;;;;5048216;28;45324;-73
2022/10/29 05:04:32;;;;;;;4.53;2.67;;;20.40;55.60;;;;;;5048581;28;45337;-72
2022/10/29 05:06:59;;;;;;;5.35;3.20;;;20.40;55.50;;;;;;5048416;28;45645;-72
2022/10/29 05:09:25;;;;;;;3.53;2.72;;;20.40;55.60;;;;;;5048323;28;45252;-72
2022/10/29 05:11:54;;;;;;;3.38;2.75;;;20.40;55.60;;;;;;5048189;28;45215;-72
2022/10/29 05:14:21;;;;;;;4.28;3.00;;;20.40;55.70;;;;;;5048516;28;45383;-69
2022/10/29 05:16:48;;;;;;;5.63;3.20;;;20.40;55.70;;;;;;5048309;28;45463;-70
2022/10/29 05:19:14;;;;;;;3.72;2.90;;;20.30;55.60;;;;;;5047542;28;46708;-70
2022/10/29 05:21:41;;;;;;;4.47;2.50;;;20.30;55.60;;;;;;5047879;28;45305;-70
2022/10/29 05:24:08;;;;;;;4.13;3.15;;;20.30;55.70;;;;;;5048317;28;45189;-70
2022/10/29 05:26:35;;;;;;;5.70;2.90;;;20.30;55.80;;;;;;5048532;28;45458;-70
2022/10/29 05:29:03;;;;;;;3.55;2.88;;;20.30;55.80;;;;;;5047865;28;45846;-70
2022/10/29 05:31:30;;;;;;;4.40;2.83;;;20.30;55.80;;;;;;5048130;28;45281;-70
2022/10/29 05:33:57;;;;;;;4.07;2.88;;;20.30;55.80;;;;;;5048020;28;45269;-70
2022/10/29 05:36:24;;;;;;;4.03;2.83;;;20.20;55.70;;;;;;5048436;28;45277;-70
2022/10/29 05:38:51;;;;;;;4.97;2.58;;;20.20;55.90;;;;;;5047753;28;46389;-69
2022/10/29 05:41:18;;;;;;;3.13;2.53;;;20.20;55.90;;;;;;5047657;28;45312;-69
2022/10/29 05:43:48;;;;;;;3.08;2.78;;;20.20;55.80;;;;;;5047969;28;45269;-69
2022/10/29 05:46:16;;;;;;;3.55;2.53;;;20.20;55.90;;;;;;5047942;28;45289;-69
2022/10/29 05:48:43;;;;;;;5.00;3.10;;;20.10;55.90;;;;;;5047365;28;46492;-69
2022/10/29 05:51:10;;;;;;;4.50;2.60;;;20.10;55.90;;;;;;5047508;28;45254;-69
2022/10/29 05:53:37;;;;;;;5.75;2.63;;;20.10;55.90;;;;;;5047729;28;45298;-69
2022/10/29 05:56:05;;;;;;;4.05;2.75;;;20.10;55.90;;;;;;5047574;28;45303;-69
2022/10/29 05:58:32;;;;;;;5.70;2.83;;;20.10;56.00;;;;;;5047257;28;45295;-69
2022/10/29 06:00:59;;;;;;;2.72;2.38;;;20.10;56.00;;;;;;5047532;28;45298;-69
2022/10/29 06:03:27;;;;;;;3.45;2.80;;;20.10;56.10;;;;;;5047685;28;45209;-69
2022/10/29 06:05:54;;;;;;;5.18;2.90;;;20.10;56.10;;;;;;5047572;28;45416;-69
2022/10/29 06:08:21;;;;;;;2.90;2.45;;;20.00;56.00;;;;;;5046314;28;46390;-69
2022/10/29 06:10:47;;;;;;;3.17;2.42;;;20.00;56.10;;;;;;5047130;28;45431;-69
2022/10/29 06:13:16;;;;;;;2.95;2.63;;;20.00;55.90;;;;;;5047412;28;45234;-69
2022/10/29 06:15:43;;;;;;;3.70;2.95;;;20.00;56.00;;;;;;5047397;28;45197;-69
2022/10/29 06:18:10;;;;;;;4.47;2.42;;;20.00;56.10;;;;;;5046911;28;46604;-71
2022/10/29 06:20:39;;;;;;;4.70;2.70;;;20.00;56.00;;;;;;5047057;28;45315;-68
2022/10/29 06:23:06;;;;;;;3.55;2.47;;;20.00;56.00;;;;;;5047332;28;45189;-71
2022/10/29 06:25:32;;;;;;;4.10;2.40;;;20.00;56.00;;;;;;5047327;28;45204;-71
2022/10/29 06:28:00;;;;;;;4.78;2.95;;;20.00;56.00;;;;;;5046689;28;45424;-71
2022/10/29 06:30:28;;;;;;;3.55;2.38;;;19.90;56.00;;;;;;5047001;28;45301;-68
2022/10/29 06:32:55;;;;;;;3.83;2.50;;;19.90;56.00;;;;;;5046904;28;45266;-68
2022/10/29 06:35:22;;;;;;;3.50;2.75;;;19.90;56.00;;;;;;5047159;28;45167;-68
2022/10/29 06:37:50;;;;;;;3.38;2.72;;;19.90;56.10;;;;;;5046605;28;46494;-68
2022/10/29 06:40:17;;;;;;;4.03;2.53;;;19.90;56.20;;;;;;5046687;28;45304;-68
2022/10/29 06:42:44;;;;;;;3.28;2.53;;;19.90;56.20;;;;;;5046836;28;45334;-71
2022/10/29 06:45:12;;;;;;;2.63;2.35;;;19.90;56.20;;;;;;5046926;28;45197;-68
2022/10/29 06:47:39;;;;;;;3.42;2.45;;;19.80;56.20;;;;;;5045975;28;45206;-68
2022/10/29 06:50:07;;;;;;;4.32;2.40;;;19.80;56.30;;;;;;5042802;28;45725;-70
2022/10/29 06:52:34;;;;;;;5.05;2.53;;;19.80;56.40;;;;;;5044230;28;45329;-68
2022/10/29 06:55:02;;;;;;;6.35;3.13;;;19.80;56.50;;;;;;5044650;28;45329;-68
2022/10/29 06:57:29;;;;;;;6.35;3.42;;;19.80;56.40;;;;;;5042060;28;47298;-68
2022/10/29 06:59:56;;;;;;;5.03;2.90;;;19.80;56.40;;;;;;5044881;28;45459;-68
2022/10/29 07:02:23;;;;;;;7.72;3.40;;;19.80;56.40;;;;;;5044691;28;45430;-68
2022/10/29 07:04:50;;;;;;;10.90;3.35;;;19.80;56.60;;;;;;5044844;28;45276;-69
2022/10/29 07:07:16;;;;;;;7.53;3.30;;;19.80;56.30;;;;;;5044512;28;45446;-69
2022/10/29 07:09:43;;;;;;;10.95;3.72;;;19.80;56.60;;;;;;5044238;28;45307;-68
2022/10/29 07:12:11;;;;;;;12.00;3.55;;;19.70;56.60;;;;;;5044664;28;45343;-70
2022/10/29 07:14:38;;;;;;;12.43;3.80;;;19.80;57.00;;;;;;5044763;28;45363;-69
2022/10/29 07:17:05;;;;;;;10.00;3.30;;;19.70;56.60;;;;;;5044723;28;45317;-69
2022/10/29 07:19:32;;;;;;;8.43;3.55;;;19.70;56.70;;;;;;5040591;28;45481;-69
2022/10/29 07:21:59;;;;;;;7.45;3.15;;;19.60;56.70;;;;;;5043952;28;45416;-69
2022/10/29 07:24:26;;;;;;;8.23;3.17;;;19.60;56.70;;;;;;5050705;28;45446;-68
2022/10/29 07:26:53;;;;;;;8.98;3.45;;;19.60;57.00;;;;;;5045578;28;45296;-69
2022/10/29 07:29:21;;;;;;;9.25;3.63;;;19.60;56.90;;;;;;5045943;28;45337;-68
2022/10/29 07:31:48;;;;;;;9.45;3.42;;;19.60;57.10;;;;;;5044621;28;45131;-71
2022/10/29 07:34:15;;;;;;;8.40;4.03;;;19.60;58.00;;;;;;5065343;28;45245;-70
2022/10/29 07:36:42;;;;;;;8.50;3.72;;;19.60;57.80;;;;;;5049080;28;46671;-72
2022/10/29 07:39:08;;;;;;;11.25;3.97;;;19.60;58.30;;;;;;5043770;28;45451;-67
2022/10/29 07:41:35;;;;;;;7.45;3.75;;;19.60;58.30;;;;;;5044600;28;45376;-71
2022/10/29 07:44:02;;;;;;;6.60;3.90;;;19.60;58.30;;;;;;5044260;28;45272;-67
2022/10/29 07:46:30;;;;;;;10.50;4.40;;;19.60;58.40;;;;;;5043416;28;47070;-68
2022/10/29 07:48:58;;;;;;;8.23;4.35;;;19.60;58.40;;;;;;5041201;28;45325;-70
2022/10/29 07:51:25;;;;;;;8.30;3.63;;;19.60;58.50;;;;;;5043929;28;45565;-70
2022/10/29 07:53:52;;;;;;;6.80;3.67;;;19.60;58.40;;;;;;5044307;28;45566;-68
2022/10/29 07:56:19;;;;;;;5.78;3.60;;;19.60;58.30;;;;;;5043995;28;47622;-70
2022/10/29 07:58:46;;;;;;;8.90;3.60;;;19.60;58.30;;;;;;5045627;28;45475;-68
2022/10/29 08:01:13;;;;;;;4.68;3.03;;;19.60;58.20;;;;;;5043851;28;45433;-70
2022/10/29 08:03:41;;;;;;;9.10;3.30;;;19.60;58.20;;;;;;5044131;28;44800;-71
2022/10/29 08:06:08;;;;;;;8.20;3.35;;;19.60;58.20;;;;;;5043798;28;45481;-69
2022/10/29 08:08:35;;;;;;;6.40;3.60;;;19.70;58.20;;;;;;5043767;28;45409;-69
2022/10/29 08:11:02;;;;;;;12.50;3.50;;;19.70;58.10;;;;;;5044114;28;45332;-69
2022/10/29 08:13:29;;;;;;;7.90;3.50;;;19.70;58.00;;;;;;5044224;28;45405;-69
2022/10/29 08:15:56;;;;;;;6.13;3.47;;;19.70;58.00;;;;;;5043613;28;47316;-68
2022/10/29 08:18:22;;;;;;;4.63;3.05;;;19.80;58.10;;;;;;5043586;28;45369;-68
2022/10/29 08:20:51;;;;;;;9.27;3.50;;;19.80;58.10;;;;;;5043608;28;45271;-69
2022/10/29 08:23:17;;;;;;;7.43;3.70;;;19.80;58.30;;;;;;5044024;28;45496;-68
2022/10/29 08:25:44;;;;;;;8.05;3.65;;;19.80;58.60;;;;;;5043765;28;45753;-69
2022/10/29 08:28:12;;;;;;;9.50;3.60;;;19.80;58.70;;;;;;5043940;28;45410;-69
2022/10/29 08:30:39;;;;;;;10.52;3.35;;;19.80;59.00;;;;;;5044134;28;45415;-68
2022/10/29 08:33:06;;;;;;;8.20;3.55;;;19.80;59.20;;;;;;5044315;28;45324;-69
2022/10/29 08:35:33;;;;;;;9.93;4.55;;;19.80;59.40;;;;;;5046737;28;46742;-69
2022/10/29 08:38:01;;;;;;;8.00;3.70;;;19.80;59.50;;;;;;5047208;28;45296;-68
2022/10/29 08:40:30;;;;;;;8.45;4.38;;;19.80;59.70;;;;;;5047281;28;45430;-69
2022/10/29 08:43:28;;;;;;;8.40;4.30;;;19.80;59.60;;;;;;5047894;28;45448;-70
2022/10/29 08:45:55;;;;;;;8.27;4.07;;;19.80;59.60;;;;;;5022972;28;46354;-69
2022/10/29 08:48:36;;;;;;;7.57;4.00;;;19.80;59.30;;;;;;5048391;28;45271;-69
2022/10/29 08:51:06;;;;;;;6.35;3.30;;;19.90;59.30;;;;;;5048866;28;45354;-69
2022/10/29 08:53:37;;;;;;;7.15;3.72;;;19.90;59.30;;;;;;5048677;28;45175;-69
2022/10/29 08:56:06;;;;;;;8.73;3.72;;;19.90;59.40;;;;;;5048502;28;46414;-68
2022/10/29 08:58:35;;;;;;;8.10;3.58;;;19.90;59.50;;;;;;5048229;28;45345;-68
2022/10/29 09:01:01;;;;;;;7.22;3.63;;;19.90;59.60;;;;;;5048499;28;45328;-69
2022/10/29 09:03:29;;;;;;;8.35;3.35;;;19.90;59.50;;;;;;5045885;28;45507;-69
2022/10/29 09:06:08;;;;;;;8.13;3.70;;;20.00;59.20;;;;;;5042518;28;46671;-69
2022/10/29 09:08:44;;;;;;;5.43;3.17;;;20.00;59.10;;;;;;5060142;28;45180;-69
2022/10/29 09:11:19;;;;;;;9.48;3.15;;;20.00;59.20;;;;;;5050350;28;45307;-69
2022/10/29 09:13:50;;;;;;;6.65;2.80;;;20.00;58.90;;;;;;5048803;28;45396;-69
2022/10/29 09:16:33;;;;;;;9.63;3.72;;;20.10;58.80;;;;;;5049853;28;45477;-69
2022/10/29 09:19:13;;;;;;;7.30;3.10;;;20.10;58.80;;;;;;5052829;28;45538;-69
2022/10/29 09:21:43;;;;;;;8.50;3.35;;;20.10;58.30;;;;;;5045211;28;45356;-71
2022/10/29 09:24:14;;;;;;;5.72;3.30;;;20.20;58.30;;;;;;5051475;28;45467;-72
2022/10/29 09:26:48;;;;;;;11.25;3.92;;;20.20;58.20;;;;;;5043082;28;46404;-71
2022/10/29 09:29:25;;;;;;;10.18;3.88;;;20.30;58.10;;;;;;5043522;28;45422;-72
2022/10/29 09:31:53;;;;;;;9.70;3.22;;;20.30;57.70;;;;;;5049501;28;45478;-72
2022/10/29 09:34:26;;;;;;;7.55;3.28;;;20.30;57.50;;;;;;5050790;28;45407;-70
2022/10/29 09:36:53;;;;;;;9.80;3.22;;;20.30;57.50;;;;;;5051804;28;45642;-72
2022/10/29 09:39:25;;;;;;;5.25;2.78;;;20.40;57.50;;;;;;5047501;28;45400;-70
2022/10/29 09:41:53;;;;;;;7.75;2.95;;;20.40;57.40;;;;;;5052433;28;45394;-69
2022/10/29 09:44:21;;;;;;;6.25;3.20;;;20.50;57.40;;;;;;5047351;28;45337;-71
2022/10/29 09:46:53;;;;;;;7.45;2.63;;;20.50;57.50;;;;;;5047727;28;46460;-70
2022/10/29 09:49:28;;;;;;;5.50;3.35;;;20.60;57.50;;;;;;5047629;28;45335;-69
2022/10/29 09:51:56;;;;;;;7.22;3.20;;;20.60;57.50;;;;;;5047672;28;45317;-70
2022/10/29 09:54:25;;;;;;;9.20;3.38;;;20.70;57.50;;;;;;5049585;28;45502;-69
2022/10/29 09:56:52;;;;;;;8.98;2.90;;;20.80;57.90;;;;;;5048635;28;46698;-69
2022/10/29 09:59:22;;;;;;;7.88;2.90;;;20.80;57.80;;;;;;5047230;28;45429;-69
2022/10/29 10:01:49;;;;;;;8.32;3.45;;;20.90;57.90;;;;;;5047253;28;45324;-69
2022/10/29 10:04:21;;;;;;;12.27;3.40;;;20.90;58.20;;;;;;5046577;28;45416;-71
2022/10/29 10:07:05;;;;;;;5.90;3.30;;;21.00;57.70;;;;;;5044666;28;45477;-69
2022/10/29 10:09:52;;;;;;;9.07;3.25;;;21.00;57.50;;;;;;5046731;28;45193;-69
2022/10/29 10:12:19;;;;;;;5.40;2.78;;;21.10;57.50;;;;;;5048867;28;45360;-69
2022/10/29 10:14:46;;;;;;;9.70;3.03;;;21.10;57.30;;;;;;5047270;28;45384;-70
2022/10/29 10:17:14;;;;;;;13.68;3.50;;;21.30;58.10;;;;;;5047563;28;47340;-70
2022/10/29 10:19:43;;;;;;;7.63;3.42;;;21.40;57.80;;;;;;5047225;28;45375;-69
2022/10/29 10:22:17;;;;;;;6.32;3.03;;;21.50;57.50;;;;;;5047759;28;44759;-70
2022/10/29 10:24:44;;;;;;;7.53;3.47;;;21.60;57.50;;;;;;5047690;28;45341;-70
2022/10/29 10:27:27;;;;;;;9.55;3.53;;;21.60;57.00;;;;;;5047319;28;45449;-70
2022/10/29 10:30:11;;;;;;;8.65;3.15;;;21.70;57.00;;;;;;5035872;28;45180;-69
2022/10/29 10:32:38;;;;;;;6.82;2.90;;;21.80;56.70;;;;;;5047130;28;45339;-69
2022/10/29 10:35:21;;;;;;;7.13;2.95;;;21.80;56.80;;;;;;5047317;28;45416;-68
2022/10/29 10:37:48;;;;;;;7.80;3.70;;;21.90;56.70;;;;;;5033977;28;46610;-69
2022/10/29 10:40:20;;;;;;;13.52;4.20;;;22.00;56.60;;;;;;5046602;28;45703;-68
2022/10/29 10:42:49;;;;;;;8.05;3.40;;;22.10;56.40;;;;;;5045261;28;45413;-71
2022/10/29 10:45:17;;;;;;;8.25;3.85;;;22.10;56.10;;;;;;5044621;28;45403;-69
2022/10/29 10:47:45;;;;;;;6.78;2.80;;;22.20;55.90;;;;;;5060211;28;46413;-68
2022/10/29 10:50:13;;;;;;;8.90;3.22;;;22.30;55.60;;;;;;5058086;28;45337;-68
2022/10/29 10:52:40;;;;;;;7.75;3.35;;;22.40;55.40;;;;;;5046598;28;45332;-70
2022/10/29 10:55:09;;;;;;;5.97;2.83;;;22.40;55.30;;;;;;5046017;28;45352;-69
2022/10/29 10:57:38;;;;;;;7.70;3.05;;;22.40;55.20;;;;;;5045619;28;45488;-70
2022/10/29 11:00:08;;;;;;;10.38;3.50;;;22.50;55.20;;;;;;5043403;28;45215;-70
2022/10/29 11:02:45;;;;;;;12.55;3.28;;;22.60;55.10;;;;;;5048377;28;45380;-69
2022/10/29 11:05:16;;;;;;;6.93;3.25;;;22.60;55.20;;;;;;5044182;28;45363;-69
2022/10/29 11:07:45;;;;;;;6.13;2.80;;;22.70;55.00;;;;;;5049308;28;45469;-69
2022/10/29 11:10:12;;;;;;;5.97;3.40;;;22.80;54.90;;;;;;5046306;28;45347;-69
2022/10/29 11:12:41;;;;;;;8.70;3.13;;;22.80;55.00;;;;;;5045982;28;45450;-69
2022/10/29 11:15:13;;;;;;;5.53;3.22;;;22.90;54.80;;;;;;5045254;28;45382;-69
2022/10/29 11:17:45;;;;;;;9.05;3.10;;;23.00;54.70;;;;;;5048726;28;45352;-69
2022/10/29 11:20:14;;;;;;;7.28;2.80;;;23.10;54.50;;;;;;5044796;28;45344;-69
2022/10/29 11:22:47;;;;;;;7.07;3.00;;;23.20;54.40;;;;;;5048048;28;45308;-69
2022/10/29 11:25:16;;;;;;;5.57;3.03;;;23.30;54.30;;;;;;5046335;28;45432;-69
2022/10/29 11:27:47;;;;;;;7.13;2.90;;;23.30;54.20;;;;;;5045887;28;47605;-69
2022/10/29 11:30:17;;;;;;;6.63;3.28;;;23.40;54.10;;;;;;5045554;28;45182;-69
2022/10/29 11:32:52;;;;;;;10.00;3.53;;;23.50;54.20;;;;;;5043379;28;45394;-69
2022/10/29 11:35:22;;;;;;;10.77;3.60;;;23.50;53.80;;;;;;5044120;28;45340;-71
2022/10/29 11:37:51;;;;;;;7.28;2.67;;;23.60;53.70;;;;;;5046603;28;45477;-70
2022/10/29 11:40:20;;;;;;;6.47;2.80;;;23.60;53.70;;;;;;5046563;28;45419;-70
2022/10/29 11:42:46;;;;;;;6.80;3.17;;;23.70;53.70;;;;;;5046525;28;45331;-71
2022/10/29 11:45:17;;;;;;;5.07;3.25;;;23.80;53.70;;;;;;5046851;28;45303;-71
2022/10/29 11:48:07;;;;;;;6.07;2.92;;;23.80;53.60;;;;;;5046154;28;45426;-70
2022/10/29 11:50:39;;;;;;;8.00;3.38;;;23.90;53.60;;;;;;5046339;28;45281;-73
2022/10/29 11:53:12;;;;;;;6.72;2.95;;;24.00;53.50;;;;;;5045877;28;45463;-74
2022/10/29 11:55:42;;;;;;;8.50;3.00;;;23.90;53.70;;;;;;5040417;28;45356;-73
2022/10/29 11:58:13;;;;;;;11.43;3.50;;;23.90;53.90;;;;;;5043659;28;45446;-77
2022/10/29 12:00:48;;;;;;;5.45;3.15;;;23.90;53.70;;;;;;5045571;28;45389;-71
2022/10/29 12:03:46;;;;;;;10.15;3.88;;;24.00;53.80;;;;;;5047290;28;45364;-72
2022/10/29 12:06:16;;;;;;;9.07;3.25;;;24.10;53.70;;;;;;5022434;28;45633;-73
2022/10/29 12:08:51;;;;;;;6.80;3.65;;;24.20;53.60;;;;;;5046489;28;45286;-72
2022/10/29 12:11:21;;;;;;;13.93;5.45;;;24.20;53.60;;;;;;5050934;28;45348;-73
2022/10/29 12:13:54;;;;;;;13.00;4.25;;;24.30;53.40;;;;;;5049582;28;45411;-72
2022/10/29 12:16:31;;;;;;;8.57;3.70;;;24.40;53.40;;;;;;5048772;28;45313;-74
2022/10/29 12:19:02;;;;;;;6.93;3.88;;;24.50;53.10;;;;;;5043759;28;45456;-75
2022/10/29 12:21:33;;;;;;;8.80;3.75;;;24.50;52.90;;;;;;5055176;28;45336;-74
2022/10/29 12:24:06;;;;;;;7.15;3.70;;;24.60;53.00;;;;;;5049504;28;45282;-72
2022/10/29 12:26:36;;;;;;;7.43;2.70;;;24.70;53.00;;;;;;5043563;28;45390;-72
2022/10/29 12:29:04;;;;;;;7.03;2.90;;;24.80;52.60;;;;;;5040654;28;46640;-72
2022/10/29 12:31:36;;;;;;;9.40;3.20;;;24.80;52.50;;;;;;5045664;28;45629;-72
2022/10/29 12:34:05;;;;;;;7.68;3.10;;;24.80;52.60;;;;;;5050217;28;45407;-73
2022/10/29 12:36:38;;;;;;;10.50;3.50;;;24.90;52.70;;;;;;5049240;28;45396;-70
2022/10/29 12:39:13;;;;;;;6.47;3.30;;;25.00;52.80;;;;;;5049417;28;46324;-71
2022/10/29 12:41:41;;;;;;;7.60;3.20;;;25.00;52.80;;;;;;5048694;28;45367;-71
2022/10/29 12:44:11;;;;;;;7.32;3.25;;;25.00;52.90;;;;;;5049002;28;45272;-71
2022/10/29 12:46:41;;;;;;;7.55;3.50;;;25.00;52.60;;;;;;5054740;28;45322;-72
2022/10/29 12:49:10;;;;;;;12.32;4.03;;;25.00;52.70;;;;;;5051797;28;46364;-72
2022/10/29 12:51:41;;;;;;;7.43;3.50;;;25.10;52.80;;;;;;5033525;28;45266;-71
2022/10/29 12:54:24;;;;;;;7.65;2.83;;;25.10;52.80;;;;;;5041334;28;45176;-70
2022/10/29 12:56:51;;;;;;;11.00;2.85;;;25.10;52.70;;;;;;5048191;28;45352;-70